createdAt,value
2018-04-07T00:04:05.334Z,12.62
2018-04-07T00:06:33.424Z,12.62
2018-04-07T00:09:01.555Z,12.64
2018-04-07T00:11:29.683Z,12.61
2018-04-07T00:13:57.823Z,12.65
2018-04-07T00:16:25.906Z,12.67
2018-04-07T00:18:55.656Z,12.66
2018-04-07T00:21:24.526Z,12.62
2018-04-07T00:23:52.663Z,12.62
2018-04-07T00:26:20.772Z,12.50
2018-04-07T00:28:48.861Z,12.48
2018-04-07T00:31:18.125Z,12.48
2018-04-07T00:33:46.251Z,12.46
2018-04-07T00:36:14.583Z,12.47
2018-04-07T00:38:42.692Z,12.41
2018-04-07T00:41:11.379Z,12.39
2018-04-07T00:43:40.334Z,12.35
2018-04-07T00:46:08.430Z,12.27
2018-04-07T00:48:36.525Z,12.29
2018-04-07T00:51:05.682Z,12.27
2018-04-07T00:53:33.755Z,12.29
2018-04-07T00:56:01.842Z,12.25
2018-04-07T01:08:14.953Z,12.07
2018-04-07T01:10:43.374Z,12.10
2018-04-07T01:13:11.462Z,12.07
2018-04-07T01:15:39.572Z,12.12
2018-04-07T01:18:07.667Z,12.12
2018-04-07T01:20:36.419Z,12.09
2018-04-07T01:23:04.546Z,12.09
2018-04-07T01:25:34.171Z,12.08
2018-04-07T01:28:02.282Z,12.08
2018-04-07T01:30:30.370Z,12.02
2018-04-07T01:32:59.234Z,12.01
2018-04-07T01:35:27.790Z,12.02
2018-04-07T01:37:56.288Z,11.98
2018-04-07T01:40:24.351Z,11.98
2018-04-07T01:42:53.018Z,11.93
2018-04-07T01:45:21.119Z,11.98
2018-04-07T01:47:55.068Z,11.90
2018-04-07T01:50:23.198Z,11.91
2018-04-07T01:52:51.296Z,11.84
2018-04-07T01:55:19.390Z,11.88
2018-04-07T01:57:47.527Z,11.90
2018-04-07T02:00:16.918Z,11.85
2018-04-07T02:02:45.830Z,11.84
2018-04-07T02:05:13.922Z,11.86
2018-04-07T02:07:43.505Z,11.83
2018-04-07T02:10:11.599Z,11.79
2018-04-07T02:12:39.727Z,11.88
2018-04-07T02:15:08.919Z,11.75
2018-04-07T02:17:38.658Z,11.75
2018-04-07T02:20:06.742Z,11.70
2018-04-07T02:22:34.863Z,11.76
2018-04-07T02:25:03.467Z,11.66
2018-04-07T02:27:31.568Z,11.65
2018-04-07T02:42:59.685Z,11.49
2018-04-07T02:45:28.587Z,11.47
2018-04-07T02:47:57.213Z,11.44
2018-04-07T02:50:25.356Z,11.43
2018-04-07T02:52:53.407Z,11.40
2018-04-07T02:55:21.513Z,11.33
2018-04-07T02:57:50.085Z,11.22
2018-04-07T03:00:18.826Z,11.33
2018-04-07T03:02:47.055Z,11.29
2018-04-07T03:05:15.231Z,11.26
2018-04-07T03:07:43.654Z,11.25
2018-04-07T03:10:11.783Z,11.24
2018-04-07T03:12:39.878Z,11.22
2018-04-07T03:15:08.246Z,11.10
2018-04-07T03:17:36.649Z,11.18
2018-04-07T03:20:04.767Z,11.17
2018-04-07T03:22:32.870Z,11.20
2018-04-07T03:25:00.980Z,11.16
2018-04-07T03:27:29.112Z,11.20
2018-04-07T03:29:57.205Z,11.10
2018-04-07T03:32:25.363Z,11.15
2018-04-07T03:34:53.491Z,11.10
2018-04-07T03:37:21.585Z,11.08
2018-04-07T03:39:49.990Z,11.08
2018-04-07T03:42:19.001Z,11.10
2018-04-07T03:44:47.097Z,10.99
2018-04-07T03:47:15.397Z,10.93
2018-04-07T03:49:43.483Z,10.94
2018-04-07T03:52:11.691Z,10.87
2018-04-07T03:54:40.252Z,10.85
2018-04-07T03:57:08.452Z,10.90
2018-04-07T03:59:36.573Z,10.87
2018-04-07T04:02:04.718Z,10.79
2018-04-07T04:04:32.834Z,10.83
2018-04-07T04:07:01.238Z,10.87
2018-04-07T04:09:29.853Z,10.83
2018-04-07T04:11:57.991Z,10.84
2018-04-07T04:14:26.837Z,10.70
2018-04-07T04:16:54.941Z,10.71
2018-04-07T04:19:23.429Z,10.75
2018-04-07T04:21:51.508Z,10.66
2018-04-07T04:34:00.863Z,10.48
2018-04-07T04:36:29.281Z,10.36
2018-04-07T04:38:58.152Z,10.41
2018-04-07T04:41:26.245Z,10.47
2018-04-07T04:43:54.366Z,10.54
2018-04-07T04:46:22.479Z,10.44
2018-04-07T04:48:51.195Z,10.42
2018-04-07T04:51:19.742Z,10.37
2018-04-07T04:53:47.872Z,10.45
2018-04-07T04:56:16.558Z,10.54
2018-04-07T04:58:44.663Z,10.42
2018-04-07T05:01:13.135Z,10.46
2018-04-07T05:03:41.229Z,10.39
2018-04-07T05:06:11.156Z,10.44
2018-04-07T05:08:39.278Z,10.35
2018-04-07T05:11:07.374Z,10.38
2018-04-07T05:13:35.467Z,10.38
2018-04-07T05:16:03.598Z,10.45
2018-04-07T05:18:32.502Z,10.45
2018-04-07T05:21:00.602Z,10.42
2018-04-07T05:23:33.974Z,10.40
2018-04-07T05:26:02.071Z,10.47
2018-04-07T05:28:30.202Z,10.46
2018-04-07T05:30:59.074Z,10.40
2018-04-07T05:33:27.282Z,10.43
2018-04-07T05:35:55.436Z,10.43
2018-04-07T05:38:24.338Z,10.36
2018-04-07T05:40:52.548Z,10.30
2018-04-07T05:43:20.626Z,10.34
2018-04-07T05:45:48.854Z,10.38
2018-04-07T05:48:17.907Z,10.25
2018-04-07T05:50:46.089Z,10.29
2018-04-07T05:53:14.939Z,10.29
2018-04-07T05:55:43.353Z,10.33
2018-04-07T05:58:11.591Z,10.37
2018-04-07T06:10:24.700Z,10.45
2018-04-07T06:12:52.838Z,10.46
2018-04-07T06:15:20.918Z,10.56
2018-04-07T06:17:49.014Z,10.61
2018-04-07T06:20:17.228Z,10.68
2018-04-07T06:22:45.313Z,10.75
2018-04-07T06:25:13.501Z,10.75
2018-04-07T06:27:42.882Z,10.87
2018-04-07T06:30:11.985Z,10.76
2018-04-07T06:32:40.683Z,10.88
2018-04-07T06:35:08.808Z,10.96
2018-04-07T06:37:37.743Z,11.11
2018-04-07T06:40:06.368Z,11.18
2018-04-07T06:42:34.480Z,11.20
2018-04-07T06:45:02.578Z,11.29
2018-04-07T06:47:31.029Z,11.37
2018-04-07T06:49:59.110Z,11.51
2018-04-07T06:52:28.094Z,11.58
2018-04-07T06:54:56.965Z,11.67
2018-04-07T06:57:26.003Z,11.76
2018-04-07T06:59:54.850Z,11.78
2018-04-07T07:02:23.024Z,11.82
2018-04-07T07:04:51.135Z,12.03
2018-04-07T07:07:19.239Z,12.28
2018-04-07T07:09:47.397Z,12.68
2018-04-07T07:12:15.494Z,12.97
2018-04-07T07:14:44.507Z,13.24
2018-04-07T07:17:12.620Z,13.59
2018-04-07T07:19:41.048Z,13.68
2018-04-07T07:22:09.142Z,13.77
2018-04-07T07:34:22.272Z,13.90
2018-04-07T07:36:56.531Z,14.06
2018-04-07T07:39:24.609Z,14.04
2018-04-07T07:41:53.496Z,14.23
2018-04-07T07:44:21.591Z,14.23
2018-04-07T07:46:50.934Z,14.30
2018-04-07T07:49:19.183Z,14.53
2018-04-07T07:51:47.751Z,14.56
2018-04-07T07:54:16.637Z,14.76
2018-04-07T07:56:44.737Z,14.83
2018-04-07T07:59:13.710Z,14.92
2018-04-07T08:01:41.844Z,14.96
2018-04-07T08:04:09.930Z,14.94
2018-04-07T08:06:38.815Z,15.13
2018-04-07T08:09:06.947Z,15.12
2018-04-07T08:11:35.331Z,15.28
2018-04-07T08:14:04.388Z,15.32
2018-04-07T08:16:32.551Z,15.39
2018-04-07T08:19:00.652Z,15.36
2018-04-07T08:21:28.764Z,15.37
2018-04-07T08:23:56.923Z,15.35
2018-04-07T08:26:25.163Z,15.47
2018-04-07T08:28:53.290Z,15.61
2018-04-07T08:31:21.865Z,15.57
2018-04-07T08:33:49.979Z,17.89
2018-04-07T08:36:18.073Z,17.57
2018-04-07T08:38:46.160Z,17.03
2018-04-07T08:41:14.322Z,16.80
2018-04-07T08:43:42.420Z,16.67
2018-04-07T08:46:11.159Z,16.68
2018-04-07T08:48:40.059Z,16.42
2018-04-07T08:51:08.146Z,16.13
2018-04-07T08:53:36.261Z,16.22
2018-04-07T08:56:04.403Z,16.17
2018-04-07T08:58:32.518Z,16.17
2018-04-07T09:01:00.606Z,16.19
2018-04-07T09:03:29.013Z,16.19
2018-04-07T09:05:57.163Z,16.18
2018-04-07T09:08:25.262Z,16.08
2018-04-07T09:10:53.379Z,16.23
2018-04-07T09:13:21.552Z,16.25
2018-04-07T09:15:49.645Z,16.27
2018-04-07T09:18:20.341Z,16.36
2018-04-07T09:20:48.495Z,16.50
2018-04-07T09:23:16.574Z,16.32
2018-04-07T09:25:44.746Z,16.17
2018-04-07T09:28:12.909Z,16.04
2018-04-07T09:30:41.007Z,15.97
2018-04-07T09:33:09.457Z,15.97
2018-04-07T09:35:38.604Z,16.01
2018-04-07T09:38:06.827Z,16.14
2018-04-07T09:40:35.876Z,16.17
2018-04-07T09:43:04.575Z,16.11
2018-04-07T09:45:32.695Z,16.21
2018-04-07T09:48:00.801Z,16.27
2018-04-07T09:50:28.904Z,16.29
2018-04-07T09:52:58.225Z,16.34
2018-04-07T09:55:26.367Z,16.29
2018-04-07T09:57:54.442Z,16.38
2018-04-07T10:00:22.539Z,16.40
2018-04-07T10:02:56.886Z,16.41
2018-04-07T10:05:25.878Z,16.51
2018-04-07T10:07:53.974Z,16.57
2018-04-07T10:10:23.221Z,16.61
2018-04-07T10:12:51.318Z,16.71
2018-04-07T10:15:19.424Z,16.80
2018-04-07T10:17:47.616Z,16.90
2018-04-07T10:20:15.727Z,16.85
2018-04-07T10:22:44.641Z,16.82
2018-04-07T10:25:12.973Z,16.89
2018-04-07T10:27:41.071Z,16.97
2018-04-07T10:30:09.159Z,16.97
2018-04-07T10:32:37.380Z,16.97
2018-04-07T10:35:05.467Z,16.99
2018-04-07T10:37:33.573Z,16.98
2018-04-07T10:40:01.693Z,16.98
2018-04-07T10:42:29.781Z,17.05
2018-04-07T10:44:57.888Z,17.05
2018-04-07T11:00:26.128Z,17.47
2018-04-07T11:02:54.226Z,17.57
2018-04-07T11:05:23.025Z,17.63
2018-04-07T11:07:51.160Z,17.59
2018-04-07T11:10:19.254Z,17.64
2018-04-07T11:12:47.527Z,17.69
2018-04-07T11:15:16.503Z,17.76
2018-04-07T11:17:44.951Z,17.74
2018-04-07T11:20:13.017Z,17.83
2018-04-07T11:22:41.193Z,17.90
2018-04-07T11:25:09.238Z,17.92
2018-04-07T11:27:37.552Z,17.91
2018-04-07T11:30:05.674Z,17.95
2018-04-07T11:32:33.791Z,17.96
2018-04-07T11:35:01.868Z,17.88
2018-04-07T11:37:29.985Z,17.86
2018-04-07T11:39:58.080Z,17.91
2018-04-07T11:42:27.110Z,18.09
2018-04-07T11:44:55.235Z,18.07
2018-04-07T11:47:23.381Z,18.09
2018-04-07T11:49:51.474Z,18.13
2018-04-07T11:52:19.589Z,18.14
2018-04-07T11:54:47.734Z,18.10
2018-04-07T11:57:15.833Z,18.10
2018-04-07T11:59:43.950Z,18.25
2018-04-07T12:02:12.350Z,18.29
2018-04-07T12:04:41.296Z,18.32
2018-04-07T12:07:09.419Z,18.47
2018-04-07T12:09:37.509Z,18.42
2018-04-07T12:12:05.846Z,18.45
2018-04-07T12:14:33.985Z,18.52
2018-04-07T12:17:02.873Z,18.58
2018-04-07T12:19:30.964Z,18.58
2018-04-07T12:22:00.106Z,18.71
2018-04-07T12:24:28.213Z,18.75
2018-04-07T12:26:57.146Z,18.79
2018-04-07T12:29:25.275Z,18.86
2018-04-07T12:31:53.354Z,18.98
2018-04-07T12:34:21.441Z,19.02
2018-04-07T12:36:49.556Z,19.03
2018-04-07T12:39:17.685Z,19.07
2018-04-07T12:41:45.809Z,19.16
2018-04-07T12:44:13.947Z,19.31
2018-04-07T12:46:42.049Z,19.34
2018-04-07T12:49:10.135Z,19.31
2018-04-07T12:51:38.264Z,19.37
2018-04-07T12:54:06.452Z,19.41
2018-04-07T12:56:34.534Z,19.50
2018-04-07T12:59:03.473Z,19.48
2018-04-07T13:01:36.519Z,19.45
2018-04-07T13:04:05.783Z,19.49
2018-04-07T13:06:34.142Z,19.56
2018-04-07T13:09:02.227Z,19.54
2018-04-07T13:11:30.343Z,19.62
2018-04-07T13:13:59.085Z,19.67
2018-04-07T13:16:27.180Z,19.63
2018-04-07T13:18:56.038Z,19.81
2018-04-07T13:34:25.059Z,20.00
2018-04-07T13:36:53.200Z,19.91
2018-04-07T13:39:21.373Z,19.96
2018-04-07T13:41:49.521Z,19.97
2018-04-07T13:44:17.645Z,20.09
2018-04-07T13:46:45.740Z,20.22
2018-04-07T13:49:13.867Z,20.16
2018-04-07T13:51:41.961Z,20.13
2018-04-07T13:54:10.060Z,20.14
2018-04-07T13:56:38.953Z,20.28
2018-04-07T13:59:07.053Z,20.31
2018-04-07T14:01:35.236Z,20.28
2018-04-07T14:04:03.705Z,20.25
2018-04-07T14:06:31.812Z,20.25
2018-04-07T14:08:59.935Z,20.42
2018-04-07T14:11:28.131Z,20.34
2018-04-07T14:13:56.206Z,20.37
2018-04-07T14:16:24.340Z,20.26
2018-04-07T14:18:52.431Z,20.33
2018-04-07T14:21:20.519Z,20.26
2018-04-07T14:23:48.629Z,20.21
2018-04-07T14:26:16.779Z,20.39
2018-04-07T14:28:44.871Z,20.46
2018-04-07T14:31:13.004Z,20.46
2018-04-07T14:33:41.104Z,20.36
2018-04-07T14:36:09.204Z,20.36
2018-04-07T14:38:38.199Z,20.38
2018-04-07T14:41:07.124Z,20.43
2018-04-07T14:43:35.264Z,20.49
2018-04-07T14:46:03.601Z,20.48
2018-04-07T14:48:31.707Z,20.43
2018-04-07T14:50:59.832Z,20.49
2018-04-07T14:53:28.688Z,20.50
2018-04-07T14:55:56.954Z,20.40
2018-04-07T14:58:25.053Z,20.42
2018-04-07T15:00:53.915Z,20.44
2018-04-07T15:03:22.022Z,20.40
2018-04-07T15:05:50.091Z,20.40
2018-04-07T15:08:18.214Z,20.39
2018-04-07T15:10:46.622Z,20.41
2018-04-07T15:13:15.603Z,20.37
2018-04-07T15:28:43.765Z,20.36
2018-04-07T15:31:12.494Z,20.23
2018-04-07T15:33:40.605Z,20.33
2018-04-07T15:36:08.737Z,20.32
2018-04-07T15:38:37.554Z,20.38
2018-04-07T15:41:05.673Z,20.46
2018-04-07T15:43:34.452Z,20.44
2018-04-07T15:46:03.278Z,20.43
2018-04-07T15:48:31.390Z,20.41
2018-04-07T15:51:04.445Z,20.47
2018-04-07T15:53:32.554Z,20.51
2018-04-07T15:56:00.655Z,20.55
2018-04-07T15:58:28.767Z,20.56
2018-04-07T16:00:56.899Z,20.60
2018-04-07T16:03:25.006Z,20.58
2018-04-07T16:05:53.405Z,20.54
2018-04-07T16:08:21.522Z,20.50
2018-04-07T16:10:49.613Z,20.49
2018-04-07T16:13:17.748Z,20.55
2018-04-07T16:15:46.215Z,20.56
2018-04-07T16:18:14.310Z,20.53
2018-04-07T16:20:42.409Z,20.43
2018-04-07T16:23:10.546Z,20.36
2018-04-07T16:25:39.324Z,20.42
2018-04-07T16:28:07.548Z,20.39
2018-04-07T16:30:35.662Z,20.41
2018-04-07T16:33:04.440Z,20.36
2018-04-07T16:35:32.550Z,20.30
2018-04-07T16:38:00.644Z,20.38
2018-04-07T16:40:30.005Z,20.40
2018-04-07T16:42:58.101Z,20.33
2018-04-07T16:45:26.286Z,20.30
2018-04-07T16:47:54.318Z,20.30
2018-04-07T16:50:22.445Z,20.29
2018-04-07T16:52:50.566Z,20.23
2018-04-07T16:55:18.778Z,20.20
2018-04-07T16:57:46.900Z,20.15
2018-04-07T17:00:15.016Z,20.15
2018-04-07T17:02:43.336Z,20.17
2018-04-07T17:05:11.440Z,20.12
2018-04-07T17:07:39.884Z,20.10
2018-04-07T17:10:07.984Z,20.14
2018-04-07T17:12:36.110Z,20.10
2018-04-07T17:15:04.199Z,20.07
2018-04-07T17:17:32.287Z,20.07
2018-04-07T17:20:00.390Z,20.04
2018-04-07T17:22:29.479Z,20.07
2018-04-07T17:24:58.342Z,20.05
2018-04-07T17:27:26.704Z,20.07
2018-04-07T17:29:54.808Z,20.08
2018-04-07T17:32:23.264Z,20.09
2018-04-07T17:34:51.368Z,20.05
2018-04-07T17:37:19.476Z,20.03
2018-04-07T17:39:47.580Z,19.98
2018-04-07T17:42:15.673Z,19.96
2018-04-07T17:44:43.802Z,20.00
2018-04-07T17:47:11.902Z,19.98
2018-04-07T17:49:43.734Z,19.94
2018-04-07T17:52:08.126Z,19.96
2018-04-07T17:54:36.666Z,19.98
2018-04-07T17:57:04.799Z,19.94
2018-04-07T17:59:32.922Z,19.91
2018-04-07T18:02:01.040Z,19.87
2018-04-07T18:04:29.110Z,19.88
2018-04-07T18:06:57.225Z,19.87
2018-04-07T18:09:25.351Z,19.88
2018-04-07T18:11:53.584Z,19.89
2018-04-07T18:14:21.844Z,19.90
2018-04-07T18:16:49.939Z,19.86
2018-04-07T18:19:18.071Z,19.87
2018-04-07T18:21:46.122Z,19.83
2018-04-07T18:24:14.228Z,19.83
2018-04-07T18:26:42.347Z,19.79
2018-04-07T18:29:10.518Z,19.81
2018-04-07T18:31:38.630Z,19.80
2018-04-07T18:34:06.779Z,19.79
2018-04-07T18:36:34.887Z,19.80
2018-04-07T18:39:03.151Z,19.80
2018-04-07T18:41:31.294Z,19.80
2018-04-07T18:43:59.374Z,19.82
2018-04-07T18:46:27.482Z,19.84
2018-04-07T18:48:55.614Z,19.84
2018-04-07T18:51:24.071Z,19.85
2018-04-07T18:53:52.218Z,19.81
2018-04-07T18:56:21.267Z,19.78
2018-04-07T18:58:49.610Z,19.79
2018-04-07T19:01:17.703Z,19.77
2018-04-07T19:03:45.825Z,19.82
2018-04-07T19:06:13.978Z,19.83
2018-04-07T19:08:42.067Z,19.81
2018-04-07T19:11:10.183Z,19.78
2018-04-07T19:13:38.532Z,19.80
2018-04-07T19:16:06.633Z,19.78
2018-04-07T19:18:34.774Z,19.78
2018-04-07T19:21:03.946Z,19.79
2018-04-07T19:23:37.022Z,19.82
2018-04-07T19:26:05.125Z,19.81
2018-04-07T19:28:33.925Z,19.83
2018-04-07T19:31:02.062Z,19.82
2018-04-07T19:33:30.152Z,19.83
2018-04-07T19:35:58.264Z,19.80
2018-04-07T19:38:26.387Z,19.77
2018-04-07T19:40:54.799Z,19.74
2018-04-07T19:56:22.901Z,19.55
2018-04-07T19:58:51.347Z,19.55
2018-04-07T20:01:19.659Z,19.52
2018-04-07T20:03:47.710Z,19.52
2018-04-07T20:06:16.175Z,19.53
2018-04-07T20:08:44.303Z,19.52
2018-04-07T20:11:12.409Z,19.56
2018-04-07T20:13:40.583Z,19.58
2018-04-07T20:16:08.694Z,19.57
2018-04-07T20:18:36.848Z,19.52
2018-04-07T20:21:04.990Z,19.51
2018-04-07T20:36:33.164Z,19.34
2018-04-07T20:39:01.223Z,19.32
2018-04-07T20:41:29.421Z,19.32
2018-04-07T20:43:57.613Z,19.35
2018-04-07T20:46:25.702Z,19.34
2018-04-07T20:48:53.807Z,19.33
2018-04-07T20:51:21.920Z,19.34
2018-04-07T20:53:50.369Z,19.32
2018-04-07T20:56:19.009Z,19.28
2018-04-07T20:58:47.146Z,19.29
2018-04-07T21:01:15.226Z,19.27
2018-04-07T21:03:44.469Z,19.29
2018-04-07T21:06:13.101Z,19.29
2018-04-07T21:08:41.897Z,19.25
2018-04-07T21:11:10.026Z,19.24
2018-04-07T21:13:38.165Z,19.23
2018-04-07T21:16:07.061Z,19.22
2018-04-07T21:18:35.975Z,19.19
2018-04-07T21:21:04.235Z,19.17
2018-04-07T21:23:33.149Z,19.14
2018-04-07T21:26:01.294Z,19.12
2018-04-07T21:28:30.209Z,19.08
2018-04-07T21:30:58.296Z,19.04
2018-04-07T21:33:27.342Z,19.05
2018-04-07T21:35:55.933Z,19.04
2018-04-07T21:38:24.045Z,19.02
2018-04-07T21:40:52.139Z,19.05
2018-04-07T21:43:20.361Z,19.00
2018-04-07T21:45:48.445Z,18.94
2018-04-07T21:48:16.571Z,18.89
2018-04-07T21:50:44.699Z,18.89
2018-04-07T21:53:12.800Z,18.81
2018-04-07T21:55:40.904Z,18.62
2018-04-07T21:58:09.031Z,18.50
2018-04-07T22:00:37.144Z,18.41
2018-04-07T22:03:05.250Z,18.29
2018-04-07T22:05:33.370Z,18.17
2018-04-07T22:21:01.535Z,17.68
2018-04-07T22:23:30.276Z,17.62
2018-04-07T22:25:58.731Z,17.43
2018-04-07T22:28:27.767Z,17.36
2018-04-07T22:30:55.877Z,17.41
2018-04-07T22:33:24.016Z,17.50
2018-04-07T22:35:52.982Z,17.44
2018-04-07T22:38:21.989Z,17.38
2018-04-07T22:40:50.435Z,17.35
2018-04-07T22:43:19.487Z,17.33
2018-04-07T22:45:47.606Z,17.33
2018-04-07T22:48:15.751Z,17.37
2018-04-07T22:50:44.785Z,17.44
2018-04-07T22:53:12.889Z,17.41
2018-04-07T22:55:41.026Z,17.35
2018-04-07T22:58:09.131Z,17.41
2018-04-07T23:00:37.557Z,17.31
2018-04-07T23:03:06.569Z,17.37
2018-04-07T23:05:34.666Z,17.33
2018-04-07T23:08:03.409Z,17.35
2018-04-07T23:10:32.329Z,17.21
2018-04-07T23:13:00.758Z,17.11
2018-04-07T23:15:28.853Z,16.97
2018-04-07T23:17:57.474Z,17.02
2018-04-07T23:20:25.548Z,17.00
2018-04-07T23:22:54.163Z,16.94
2018-04-07T23:25:22.786Z,16.87
2018-04-07T23:27:51.859Z,16.88
2018-04-07T23:30:20.320Z,16.84
2018-04-07T23:32:48.510Z,16.84
2018-04-07T23:35:16.968Z,16.75
2018-04-07T23:37:45.084Z,16.65
2018-04-07T23:40:13.176Z,16.72
2018-04-07T23:42:41.279Z,16.72
2018-04-07T23:45:10.333Z,16.63
2018-04-07T23:47:38.426Z,16.79
2018-04-07T23:50:06.558Z,16.77
2018-04-07T23:52:35.320Z,16.73
2018-04-07T23:55:04.467Z,16.67
2018-04-07T23:57:32.566Z,16.66
